createdAt,value
2022-10-15T00:01:34.202Z,84.70
2022-10-15T00:06:34.932Z,74.72
2022-10-15T00:09:03.318Z,81.55
2022-10-15T00:11:31.679Z,79.63
2022-10-15T00:14:00.508Z,81.75
2022-10-15T00:16:29.305Z,87.82
2022-10-15T00:18:59.246Z,74.07
2022-10-15T00:21:27.654Z,71.72
2022-10-15T00:23:55.807Z,81.13
2022-10-15T00:26:26.406Z,81.28
2022-10-15T00:28:57.676Z,70.63
2022-10-15T00:31:28.250Z,77.22
2022-10-15T00:33:58.697Z,70.68
2022-10-15T00:36:32.662Z,83.55
2022-10-15T00:39:01.140Z,83.43
2022-10-15T00:41:32.708Z,79.32
2022-10-15T00:44:20.329Z,78.20
2022-10-15T00:46:59.607Z,72.07
2022-10-15T00:49:33.678Z,74.40
2022-10-15T00:52:06.529Z,77.63
2022-10-15T00:54:44.526Z,76.25
2022-10-15T00:57:13.102Z,73.72
2022-10-15T00:59:52.397Z,76.63
2022-10-15T01:02:21.478Z,81.43
2022-10-15T01:04:51.250Z,75.85
2022-10-15T01:07:19.881Z,72.40
2022-10-15T01:09:48.216Z,89.63
2022-10-15T01:12:25.741Z,71.55
2022-10-15T01:15:15.617Z,76.45
2022-10-15T01:17:47.888Z,74.07
2022-10-15T01:21:01.667Z,73.15
2022-10-15T01:24:07.620Z,77.37
2022-10-15T01:27:20.765Z,71.47
2022-10-15T01:30:23.978Z,75.82
2022-10-15T01:33:05.692Z,80.03
2022-10-15T01:35:50.741Z,76.90
2022-10-15T01:39:00.391Z,82.45
2022-10-15T01:41:42.677Z,87.30
2022-10-15T01:44:21.244Z,82.32
2022-10-15T01:49:53.187Z,91.95
2022-10-15T01:52:33.332Z,84.78
2022-10-15T01:55:02.950Z,76.00
2022-10-15T01:57:33.390Z,81.95
2022-10-15T02:00:02.894Z,82.95
2022-10-15T02:02:41.009Z,86.13
2022-10-15T02:05:25.865Z,81.28
2022-10-15T02:08:01.436Z,85.53
2022-10-15T02:10:58.523Z,82.18
2022-10-15T02:13:55.387Z,84.20
2022-10-15T02:16:41.510Z,76.07
2022-10-15T02:19:33.179Z,80.13
2022-10-15T02:22:08.404Z,75.63
2022-10-15T02:24:51.658Z,78.35
2022-10-15T02:27:25.052Z,77.60
2022-10-15T02:29:55.122Z,77.18
2022-10-15T02:32:25.356Z,77.63
2022-10-15T02:34:55.053Z,80.95
2022-10-15T02:37:26.745Z,76.15
2022-10-15T02:39:54.321Z,75.07
2022-10-15T02:42:22.553Z,80.30
2022-10-15T02:44:50.727Z,79.72
2022-10-15T02:47:18.710Z,77.25
2022-10-15T02:49:47.153Z,77.50
2022-10-15T02:52:14.820Z,82.32
2022-10-15T02:54:42.481Z,79.47
2022-10-15T02:57:10.319Z,78.00
2022-10-15T02:59:40.674Z,77.43
2022-10-15T03:02:14.084Z,76.63
2022-10-15T03:04:45.135Z,80.75
2022-10-15T03:07:14.201Z,79.28
2022-10-15T03:09:41.781Z,77.43
2022-10-15T03:12:09.301Z,75.10
2022-10-15T03:14:38.172Z,77.07
2022-10-15T03:17:05.799Z,75.95
2022-10-15T03:19:33.904Z,80.93
2022-10-15T03:22:01.787Z,72.35
2022-10-15T03:24:40.869Z,76.78
2022-10-15T03:27:08.697Z,75.43
2022-10-15T03:29:36.382Z,80.15
2022-10-15T03:32:05.274Z,71.07
2022-10-15T03:34:32.904Z,74.00
2022-10-15T03:37:01.385Z,75.82
2022-10-15T03:39:30.439Z,79.10
2022-10-15T03:42:02.289Z,75.20
2022-10-15T03:44:38.490Z,75.10
2022-10-15T03:47:12.713Z,83.93
2022-10-15T03:49:47.139Z,74.32
2022-10-15T03:52:16.231Z,73.22
2022-10-15T03:54:45.065Z,74.15
2022-10-15T03:57:14.818Z,67.10
2022-10-15T04:00:09.210Z,75.35
2022-10-15T04:05:21.141Z,72.07
2022-10-15T04:07:53.851Z,72.60
2022-10-15T04:10:22.887Z,71.75
2022-10-15T04:12:51.059Z,67.88
2022-10-15T04:15:19.541Z,70.95
2022-10-15T04:17:57.329Z,73.40
2022-10-15T04:20:27.339Z,75.07
2022-10-15T04:22:56.490Z,70.05
2022-10-15T04:25:24.866Z,77.40
2022-10-15T04:27:53.501Z,73.65
2022-10-15T04:30:21.462Z,81.43
2022-10-15T04:32:55.027Z,72.68
2022-10-15T04:35:23.437Z,85.68
2022-10-15T04:38:05.933Z,77.15
2022-10-15T04:41:00.610Z,77.45
2022-10-15T04:43:35.896Z,80.10
2022-10-15T04:46:09.224Z,81.22
2022-10-15T04:48:42.199Z,79.32
2022-10-15T04:51:18.411Z,77.28
2022-10-15T04:54:04.504Z,83.03
2022-10-15T04:56:33.203Z,79.43
2022-10-15T04:59:01.060Z,78.95
2022-10-15T05:01:32.624Z,77.40
2022-10-15T05:04:06.934Z,78.25
2022-10-15T05:06:35.045Z,84.03
2022-10-15T05:09:15.995Z,87.45
2022-10-15T05:11:49.247Z,81.82
2022-10-15T05:14:17.051Z,85.72
2022-10-15T05:16:53.039Z,83.20
2022-10-15T05:19:21.079Z,77.63
2022-10-15T05:24:25.648Z,79.85
2022-10-15T05:27:04.307Z,79.22
2022-10-15T05:29:34.232Z,83.75
2022-10-15T05:32:02.667Z,77.65
2022-10-15T05:34:30.740Z,75.40
2022-10-15T05:37:06.772Z,76.00
2022-10-15T05:39:34.251Z,80.85
2022-10-15T05:42:01.756Z,84.85
2022-10-15T05:44:37.691Z,75.15
2022-10-15T05:47:05.296Z,80.20
2022-10-15T05:49:34.625Z,96.75
2022-10-15T05:52:12.097Z,83.50
2022-10-15T05:55:07.273Z,83.18
2022-10-15T05:57:35.093Z,99.65
2022-10-15T06:00:06.334Z,93.63
2022-10-15T06:02:39.878Z,98.45
2022-10-15T06:05:08.010Z,95.07
2022-10-15T06:07:35.984Z,95.60
2022-10-15T06:10:05.865Z,91.57
2022-10-15T06:12:36.524Z,89.93
2022-10-15T06:15:04.299Z,87.13
2022-10-15T06:17:32.277Z,83.10
2022-10-15T06:20:00.437Z,82.53
2022-10-15T06:22:31.150Z,83.30
2022-10-15T06:24:58.920Z,86.78
2022-10-15T06:27:27.544Z,76.03
2022-10-15T06:29:55.491Z,83.32
2022-10-15T06:32:23.664Z,83.68
2022-10-15T06:34:51.409Z,82.72
2022-10-15T06:37:19.379Z,76.57
2022-10-15T06:39:47.280Z,85.22
2022-10-15T06:42:14.917Z,78.05
2022-10-15T06:44:42.683Z,80.75
2022-10-15T06:47:10.802Z,78.53
2022-10-15T06:49:38.714Z,73.30
2022-10-15T06:52:07.130Z,71.25
2022-10-15T06:54:34.779Z,73.60
2022-10-15T06:57:02.627Z,71.70
2022-10-15T06:59:30.085Z,68.75
2022-10-15T07:01:59.182Z,73.70
2022-10-15T07:04:26.698Z,69.93
2022-10-15T07:06:54.186Z,67.78
2022-10-15T07:09:23.323Z,72.85
2022-10-15T07:11:50.876Z,69.22
2022-10-15T07:14:19.031Z,71.63
2022-10-15T07:16:46.631Z,66.30
2022-10-15T07:19:14.755Z,77.13
2022-10-15T07:21:44.512Z,68.95
2022-10-15T07:24:12.010Z,73.50
2022-10-15T07:26:39.664Z,73.18
2022-10-15T07:29:07.695Z,67.72
2022-10-15T07:31:35.687Z,70.25
2022-10-15T07:34:03.444Z,72.70
2022-10-15T07:36:31.537Z,63.88
2022-10-15T07:38:59.042Z,72.60
2022-10-15T07:41:26.637Z,69.95
2022-10-15T07:43:54.280Z,72.03
2022-10-15T07:46:22.358Z,77.93
2022-10-15T07:48:55.888Z,70.95
2022-10-15T07:51:23.882Z,70.03
2022-10-15T07:53:51.477Z,69.25
2022-10-15T07:56:19.418Z,74.05
2022-10-15T07:58:53.268Z,75.18
2022-10-15T08:01:21.913Z,65.47
2022-10-15T08:03:49.715Z,69.05
2022-10-15T08:06:18.983Z,64.47
2022-10-15T08:08:47.730Z,76.90
2022-10-15T08:11:16.927Z,71.72
2022-10-15T08:13:47.103Z,78.13
2022-10-15T08:16:16.257Z,66.25
2022-10-15T08:18:45.228Z,71.53
2022-10-15T08:21:13.132Z,64.25
2022-10-15T08:23:41.243Z,71.28
2022-10-15T08:26:09.359Z,69.88
2022-10-15T08:28:37.598Z,66.57
2022-10-15T08:31:06.078Z,67.75
2022-10-15T08:33:36.049Z,71.43
2022-10-15T08:36:07.660Z,72.80
2022-10-15T08:38:35.582Z,64.68
2022-10-15T08:41:06.124Z,68.00
2022-10-15T08:43:40.462Z,70.57
2022-10-15T08:46:34.161Z,67.22
2022-10-15T08:49:03.600Z,64.32
2022-10-15T08:51:41.576Z,76.90
2022-10-15T08:54:15.576Z,74.68
2022-10-15T08:56:55.941Z,62.40
2022-10-15T08:59:40.528Z,63.70
2022-10-15T09:02:11.501Z,65.15
2022-10-15T09:04:53.759Z,64.63
2022-10-15T09:07:43.487Z,65.43
2022-10-15T09:10:19.410Z,64.13
2022-10-15T09:12:58.607Z,64.57
2022-10-15T09:15:28.015Z,70.55
2022-10-15T09:17:56.383Z,68.00
2022-10-15T09:20:37.364Z,69.93
2022-10-15T09:23:17.269Z,66.85
2022-10-15T09:25:50.527Z,69.88
2022-10-15T09:28:21.998Z,69.05
2022-10-15T09:30:54.026Z,66.15
2022-10-15T09:33:34.552Z,63.13
2022-10-15T09:36:14.305Z,71.57
2022-10-15T09:38:41.820Z,68.78
2022-10-15T09:41:30.925Z,75.75
2022-10-15T09:44:01.825Z,73.30
2022-10-15T09:46:47.518Z,67.35
2022-10-15T09:49:21.250Z,72.57
2022-10-15T09:51:59.529Z,69.03
2022-10-15T09:54:49.898Z,71.55
2022-10-15T09:57:21.487Z,68.45
2022-10-15T09:59:57.904Z,61.38
2022-10-15T10:02:26.577Z,67.47
2022-10-15T10:04:55.024Z,68.28
2022-10-15T10:07:37.620Z,59.97
2022-10-15T10:10:28.700Z,56.78
2022-10-15T10:12:57.304Z,61.75
2022-10-15T10:15:41.552Z,60.75
2022-10-15T10:18:19.652Z,62.25
2022-10-15T10:20:59.804Z,69.55
2022-10-15T10:23:40.466Z,66.70
2022-10-15T10:26:10.923Z,71.90
2022-10-15T10:28:53.741Z,67.85
2022-10-15T10:31:31.170Z,60.90
2022-10-15T10:34:02.486Z,66.97
2022-10-15T10:36:39.429Z,74.85
2022-10-15T10:39:15.368Z,70.05
2022-10-15T10:41:53.175Z,70.60
2022-10-15T10:44:31.769Z,72.35
2022-10-15T10:47:08.630Z,73.00
2022-10-15T10:49:39.441Z,71.82
2022-10-15T10:52:29.911Z,72.60
2022-10-15T10:55:16.960Z,71.95
2022-10-15T10:57:47.942Z,76.13
2022-10-15T11:00:24.351Z,65.82
2022-10-15T11:02:52.605Z,69.43
2022-10-15T11:05:27.293Z,75.00
2022-10-15T11:07:54.767Z,72.95
2022-10-15T11:10:28.337Z,73.88
2022-10-15T11:15:43.424Z,61.08
2022-10-15T11:18:39.917Z,65.75
2022-10-15T11:21:33.972Z,58.92
2022-10-15T11:24:11.537Z,68.93
2022-10-15T11:27:06.350Z,63.58
2022-10-15T11:29:51.892Z,63.40
2022-10-15T11:32:28.413Z,69.05
2022-10-15T11:35:41.007Z,67.90
2022-10-15T11:38:23.960Z,70.45
2022-10-15T11:41:23.791Z,66.13
2022-10-15T11:44:13.053Z,65.20
2022-10-15T11:47:10.572Z,71.22
2022-10-15T11:49:56.586Z,62.28
2022-10-15T11:52:55.192Z,70.93
2022-10-15T11:55:32.963Z,68.70
2022-10-15T11:58:06.278Z,70.65
2022-10-15T12:00:39.892Z,63.40
2022-10-15T12:03:15.877Z,76.57
2022-10-15T12:05:50.347Z,76.05
2022-10-15T12:08:20.074Z,79.72
2022-10-15T12:11:05.326Z,73.45
2022-10-15T12:13:36.171Z,72.22
2022-10-15T12:16:26.667Z,68.72
2022-10-15T12:19:13.547Z,74.05
2022-10-15T12:21:56.351Z,70.30
2022-10-15T12:24:40.957Z,66.45
2022-10-15T12:27:44.303Z,73.18
2022-10-15T12:30:20.750Z,68.80
2022-10-15T12:32:50.955Z,64.45
2022-10-15T12:35:50.096Z,65.13
2022-10-15T12:38:28.029Z,68.45
2022-10-15T12:41:06.477Z,65.03
2022-10-15T12:43:37.867Z,65.55
2022-10-15T12:46:08.167Z,65.00
2022-10-15T12:48:40.159Z,74.50
2022-10-15T12:51:17.167Z,64.57
2022-10-15T12:53:46.664Z,65.40
2022-10-15T12:56:17.730Z,74.78
2022-10-15T12:58:48.433Z,68.55
2022-10-15T13:01:16.044Z,69.28
2022-10-15T13:03:53.344Z,66.57
2022-10-15T13:06:21.923Z,64.78
2022-10-15T13:08:52.396Z,63.40
2022-10-15T13:11:32.023Z,68.13
2022-10-15T13:14:03.337Z,74.85
2022-10-15T13:16:31.569Z,67.22
2022-10-15T13:19:00.377Z,70.93
2022-10-15T13:21:52.323Z,68.35
2022-10-15T13:24:23.607Z,70.38
2022-10-15T13:26:53.624Z,78.57
2022-10-15T13:29:24.750Z,82.22
2022-10-15T13:31:55.157Z,72.03
2022-10-15T13:34:29.303Z,78.72
2022-10-15T13:36:59.770Z,68.32
2022-10-15T13:39:30.002Z,77.40
2022-10-15T13:42:18.993Z,67.53
2022-10-15T13:44:56.801Z,69.45
2022-10-15T13:47:29.762Z,74.82
2022-10-15T13:50:19.335Z,74.30
2022-10-15T13:53:05.607Z,75.07
2022-10-15T13:55:37.068Z,67.35
2022-10-15T13:58:22.358Z,77.35
2022-10-15T14:00:58.835Z,65.95
2022-10-15T14:03:32.542Z,68.70
2022-10-15T14:06:17.555Z,69.57
2022-10-15T14:08:46.519Z,69.38
2022-10-15T14:11:15.313Z,71.35
2022-10-15T14:13:50.900Z,67.13
2022-10-15T14:16:24.682Z,69.53
2022-10-15T14:18:56.680Z,64.95
2022-10-15T14:21:30.928Z,61.80
2022-10-15T14:24:15.115Z,63.78
2022-10-15T14:26:44.446Z,68.18
2022-10-15T14:29:36.647Z,55.47
2022-10-15T14:32:22.322Z,70.43
2022-10-15T14:34:51.536Z,62.80
2022-10-15T14:37:35.351Z,51.22
2022-10-15T14:40:12.524Z,59.75
2022-10-15T14:43:02.743Z,51.33
2022-10-15T14:45:55.627Z,52.25
2022-10-15T14:48:32.667Z,46.70
2022-10-15T14:51:12.571Z,55.63
2022-10-15T14:53:45.813Z,51.25
2022-10-15T14:56:24.285Z,47.30
2022-10-15T14:58:56.719Z,51.85
2022-10-15T15:01:25.189Z,47.00
2022-10-15T15:03:55.224Z,49.90
2022-10-15T15:06:23.416Z,52.38
2022-10-15T15:08:51.377Z,48.17
2022-10-15T15:11:23.689Z,49.35
2022-10-15T15:13:52.306Z,55.00
2022-10-15T15:16:20.329Z,48.88
2022-10-15T15:18:49.042Z,48.30
2022-10-15T15:21:22.326Z,52.55
2022-10-15T15:23:50.250Z,52.92
2022-10-15T15:26:18.425Z,52.42
2022-10-15T15:28:46.516Z,60.22
2022-10-15T15:31:18.206Z,112.20
2022-10-15T15:33:46.675Z,66.72
2022-10-15T15:36:20.602Z,52.55
2022-10-15T15:38:52.108Z,58.72
2022-10-15T15:41:22.283Z,60.97
2022-10-15T15:43:51.409Z,62.88
2022-10-15T15:46:19.591Z,62.92
2022-10-15T15:48:47.821Z,60.90
2022-10-15T15:51:26.848Z,60.72
2022-10-15T15:53:55.930Z,61.00
2022-10-15T15:56:23.861Z,67.57
2022-10-15T15:58:51.983Z,64.05
2022-10-15T16:01:20.534Z,70.35
2022-10-15T16:03:48.714Z,72.72
2022-10-15T16:06:16.395Z,68.85
2022-10-15T16:08:44.295Z,77.10
2022-10-15T16:11:12.229Z,68.00
2022-10-15T16:13:41.500Z,69.05
2022-10-15T16:16:09.996Z,69.55
2022-10-15T16:18:37.868Z,74.30
2022-10-15T16:21:05.676Z,70.93
2022-10-15T16:23:34.042Z,76.47
2022-10-15T16:26:01.662Z,73.55
2022-10-15T16:28:29.184Z,72.28
2022-10-15T16:31:13.576Z,73.13
2022-10-15T16:33:41.769Z,70.10
2022-10-15T16:36:10.365Z,70.10
2022-10-15T16:38:40.439Z,71.43
2022-10-15T16:41:08.919Z,78.60
2022-10-15T16:43:37.064Z,71.20
2022-10-15T16:46:05.783Z,74.03
2022-10-15T16:48:35.007Z,68.22
2022-10-15T16:51:04.752Z,72.32
2022-10-15T16:53:33.917Z,80.88
2022-10-15T16:56:04.709Z,76.68
2022-10-15T16:58:32.716Z,81.63
2022-10-15T17:01:02.102Z,80.50
2022-10-15T17:03:30.336Z,86.05
2022-10-15T17:06:03.569Z,75.20
2022-10-15T17:08:35.877Z,78.65
2022-10-15T17:11:15.858Z,77.53
2022-10-15T17:13:44.646Z,78.30
2022-10-15T17:16:28.385Z,78.13
2022-10-15T17:18:57.214Z,79.78
2022-10-15T17:21:27.742Z,83.25
2022-10-15T17:23:58.076Z,90.25
2022-10-15T17:26:29.240Z,81.53
2022-10-15T17:29:20.492Z,82.50
2022-10-15T17:31:50.199Z,79.35
2022-10-15T17:34:40.337Z,80.28
2022-10-15T17:37:11.699Z,85.40
2022-10-15T17:39:39.516Z,80.63
2022-10-15T17:42:08.293Z,87.22
2022-10-15T17:44:36.587Z,83.03
2022-10-15T17:47:04.189Z,79.50
2022-10-15T17:49:31.794Z,81.47
2022-10-15T17:51:59.756Z,91.40
2022-10-15T17:54:27.394Z,83.28
2022-10-15T17:56:55.001Z,85.45
2022-10-15T17:59:23.025Z,81.72
2022-10-15T18:01:59.810Z,89.32
2022-10-15T18:04:29.521Z,95.22
2022-10-15T18:06:57.584Z,90.25
2022-10-15T18:09:26.439Z,84.80
2022-10-15T18:11:57.576Z,83.95
2022-10-15T18:14:29.631Z,84.17
2022-10-15T18:16:58.437Z,85.28
2022-10-15T18:19:26.873Z,93.47
2022-10-15T18:21:58.172Z,77.53
2022-10-15T18:24:25.958Z,84.15
2022-10-15T18:26:54.281Z,80.47
2022-10-15T18:29:22.650Z,84.88
2022-10-15T18:31:56.230Z,86.80
2022-10-15T18:34:25.736Z,79.40
2022-10-15T18:36:53.398Z,72.78
2022-10-15T18:39:26.765Z,72.88
2022-10-15T18:41:54.464Z,81.43
2022-10-15T18:44:23.473Z,72.53
2022-10-15T18:46:51.532Z,81.20
2022-10-15T18:49:20.849Z,77.60
2022-10-15T18:51:52.004Z,83.70
2022-10-15T18:54:21.215Z,94.40
2022-10-15T18:56:53.466Z,83.95
2022-10-15T18:59:37.193Z,80.13
2022-10-15T19:02:14.681Z,81.22
2022-10-15T19:04:44.463Z,75.82
2022-10-15T19:07:17.126Z,79.70
2022-10-15T19:11:10.035Z,74.28
2022-10-15T19:13:38.174Z,91.55
2022-10-15T19:16:06.725Z,76.13
2022-10-15T19:18:37.281Z,80.50
2022-10-15T19:21:06.032Z,80.18
2022-10-15T19:23:34.793Z,74.18
2022-10-15T19:26:06.290Z,74.57
2022-10-15T19:28:34.191Z,78.43
2022-10-15T19:31:04.143Z,81.43
2022-10-15T19:33:38.023Z,84.38
2022-10-15T19:36:06.014Z,82.97
2022-10-15T19:38:34.643Z,86.18
2022-10-15T19:41:06.457Z,73.35
2022-10-15T19:43:34.029Z,81.43
2022-10-15T19:46:04.666Z,74.47
2022-10-15T19:48:34.975Z,82.85
2022-10-15T19:51:03.810Z,78.60
2022-10-15T19:53:35.504Z,76.03
2022-10-15T19:56:08.444Z,77.03
2022-10-15T19:58:36.797Z,73.25
2022-10-15T20:01:05.975Z,65.70
2022-10-15T20:08:36.246Z,70.90
2022-10-15T20:11:08.531Z,82.82
2022-10-15T20:13:36.907Z,71.50
2022-10-15T20:16:07.399Z,65.82
2022-10-15T20:18:36.513Z,66.22
2022-10-15T20:21:12.704Z,58.67
2022-10-15T20:23:41.303Z,60.55
2022-10-15T20:26:14.076Z,59.00
2022-10-15T20:28:44.366Z,68.30
2022-10-15T20:31:16.508Z,58.35
2022-10-15T20:33:44.546Z,63.97
2022-10-15T20:36:17.141Z,57.03
2022-10-15T20:38:47.999Z,61.67
2022-10-15T20:41:17.411Z,55.75
2022-10-15T20:43:47.374Z,60.17
2022-10-15T20:46:29.076Z,65.43
2022-10-15T20:49:03.315Z,55.63
2022-10-15T20:51:33.729Z,61.45
2022-10-15T20:54:02.190Z,76.47
2022-10-15T20:56:30.567Z,59.95
2022-10-15T20:58:58.363Z,62.53
2022-10-15T21:01:25.959Z,68.03
2022-10-15T21:03:53.627Z,67.07
2022-10-15T21:06:21.298Z,74.03
2022-10-15T21:08:48.884Z,66.05
2022-10-15T21:11:16.396Z,79.35
2022-10-15T21:13:44.587Z,68.65
2022-10-15T21:16:12.322Z,68.60
2022-10-15T21:18:40.067Z,67.53
2022-10-15T21:21:10.281Z,77.22
2022-10-15T21:23:39.761Z,69.30
2022-10-15T21:26:12.679Z,80.57
2022-10-15T21:28:41.314Z,78.90
2022-10-15T21:31:11.716Z,81.95
2022-10-15T21:33:39.988Z,82.30
2022-10-15T21:36:26.451Z,77.88
2022-10-15T21:38:59.339Z,81.55
2022-10-15T21:41:29.161Z,81.80
2022-10-15T21:43:57.718Z,83.20
2022-10-15T21:46:25.504Z,81.00
2022-10-15T21:48:53.998Z,85.38
2022-10-15T21:51:28.516Z,87.07
2022-10-15T21:53:57.999Z,81.60
2022-10-15T21:56:25.883Z,85.28
2022-10-15T21:58:54.683Z,81.18
2022-10-15T22:01:25.506Z,90.30
2022-10-15T22:03:57.898Z,82.72
2022-10-15T22:06:27.635Z,75.68
2022-10-15T22:08:55.924Z,76.10
2022-10-15T22:11:29.947Z,74.18
2022-10-15T22:13:59.747Z,77.05
2022-10-15T22:16:28.574Z,67.88
2022-10-15T22:18:57.847Z,79.03
2022-10-15T22:21:28.729Z,72.90
2022-10-15T22:24:02.044Z,74.82
2022-10-15T22:26:34.007Z,63.20
2022-10-15T22:29:03.577Z,67.03
2022-10-15T22:31:32.949Z,65.30
2022-10-15T22:34:01.149Z,64.80
2022-10-15T22:36:31.419Z,62.88
2022-10-15T22:39:02.416Z,64.95
2022-10-15T22:41:32.711Z,58.60
2022-10-15T22:44:00.883Z,61.67
2022-10-15T22:46:32.064Z,54.60
2022-10-15T22:49:00.093Z,60.05
2022-10-15T22:51:27.639Z,61.50
2022-10-15T22:53:56.633Z,56.92
2022-10-15T22:56:25.312Z,56.50
2022-10-15T22:58:53.188Z,63.22
2022-10-15T23:01:23.876Z,53.33
2022-10-15T23:03:54.290Z,66.20
2022-10-15T23:06:23.648Z,67.45
2022-10-15T23:08:51.713Z,66.28
2022-10-15T23:11:22.999Z,63.50
2022-10-15T23:13:57.069Z,64.82
2022-10-15T23:16:29.109Z,63.38
2022-10-15T23:19:09.340Z,58.10
2022-10-15T23:21:46.127Z,66.03
2022-10-15T23:24:15.385Z,69.78
2022-10-15T23:26:44.220Z,69.82
2022-10-15T23:29:37.825Z,65.75
2022-10-15T23:32:05.727Z,69.97
2022-10-15T23:34:33.530Z,65.60
2022-10-15T23:37:01.819Z,63.20
2022-10-15T23:39:29.682Z,69.10
2022-10-15T23:41:57.238Z,69.25
2022-10-15T23:44:25.907Z,69.10
2022-10-15T23:46:53.712Z,68.60
2022-10-15T23:49:21.268Z,78.53
2022-10-15T23:51:48.848Z,70.10
2022-10-15T23:54:18.313Z,66.72
2022-10-15T23:56:47.040Z,74.20
2022-10-15T23:59:17.141Z,75.63
